Time;durP1;ratioP1;P1;durP2;ratioP2;P2;SDS_P1;SDS_P2;PMS_P1;PMS_P2;Temp;Humidity;BMP_temperature;BMP_pressure;BME280_temperature;BME280_humidity;BME280_pressure;Samples;Min_cycle;Max_cycle;Signal;HPM_P1;HPM_P2
2022/05/16 00:00:14;;;;;;;5.10;2.30;;;;;;100869.15;;;;106711;1285;28668;-29
2022/05/16 00:03:03;;;;;;;5.10;2.60;;;;;;100872.09;;;;106636;1285;28710;-29
2022/05/16 00:05:30;;;;;;;4.80;2.20;;;;;;100875.67;;;;106761;1285;31072;-28
2022/05/16 00:07:57;;;;;;;4.60;2.60;;;;;;100875.20;;;;106764;1285;28604;-28
2022/05/16 00:10:25;;;;;;;4.30;2.40;;;;;;100873.74;;;;106725;1285;28651;-29
2022/05/16 00:12:52;;;;;;;3.90;2.00;;;;;;100875.80;;;;106774;1285;30876;-29
2022/05/16 00:15:21;;;;;;;4.40;2.40;;;;;;100876.66;;;;106742;1285;27952;-29
2022/05/16 00:17:48;;;;;;;5.70;2.60;;;;;;100877.62;;;;106754;1285;28706;-29
2022/05/16 00:20:15;;;;;;;4.90;2.30;;;;;;100880.52;;;;106605;1286;26621;-31
2022/05/16 00:22:42;;;;;;;5.00;2.80;;;;;;100882.39;;;;106734;1285;30488;-30
2022/05/16 00:25:12;;;;;;;5.50;2.60;;;;;;100885.63;;;;106598;1286;28729;-29
2022/05/16 00:27:39;;;;;;;5.90;2.40;;;;;;100887.86;;;;106778;1285;29871;-29
2022/05/16 00:30:10;;;;;;;4.50;2.20;;;;;;100887.98;;;;106617;1285;30787;-29
2022/05/16 00:32:37;;;;;;;5.30;2.40;;;;;;100890.16;;;;106768;1285;31032;-30
2022/05/16 00:35:06;;;;;;;6.10;2.40;;;;;;100888.67;;;;106750;1285;26234;-29
2022/05/16 00:37:33;;;;;;;5.00;2.30;;;;;;100891.48;;;;106755;1284;26136;-29
2022/05/16 00:39:59;;;;;;;5.40;2.60;;;;;;100894.70;;;;106734;1284;28670;-29
2022/05/16 00:42:26;;;;;;;4.00;2.30;;;;;;100898.51;;;;106498;1287;29438;-29
2022/05/16 00:44:53;;;;;;;4.60;2.50;;;;;;100898.32;;;;106741;1285;28840;-27
2022/05/16 00:47:19;;;;;;;4.20;2.20;;;;;;100898.80;;;;106739;1285;28881;-30
2022/05/16 00:49:49;;;;;;;4.50;2.70;;;;;;100898.85;;;;106773;1285;27971;-28
2022/05/16 00:52:38;;;;;;;4.80;2.60;;;;;;100898.54;;;;106616;1287;28556;-30
2022/05/16 00:55:14;;;;;;;4.50;2.50;;;;;;100900.20;;;;106762;1285;31067;-29
2022/05/16 00:58:04;;;;;;;6.00;2.90;;;;;;100900.17;;;;106752;1285;30092;-30
2022/05/16 01:00:39;;;;;;;5.00;2.70;;;;;;100904.67;;;;106808;1285;30879;-29
2022/05/16 01:06:09;;;;;;;6.00;2.70;;;;;;100901.60;;;;106369;1288;27390;-30
2022/05/16 01:08:43;;;;;;;4.20;2.60;;;;;;100908.05;;;;106610;1285;29784;-30
2022/05/16 01:11:13;;;;;;;4.70;2.80;;;;;;100904.54;;;;106586;1288;26375;-30
2022/05/16 01:13:40;;;;;;;5.00;2.80;;;;;;100909.59;;;;106806;1285;28115;-30
2022/05/16 01:16:06;;;;;;;5.10;2.50;;;;;;100912.19;;;;106780;1285;29557;-30
2022/05/16 01:18:33;;;;;;;5.40;2.50;;;;;;100913.95;;;;106788;1287;30717;-30
2022/05/16 01:21:38;;;;;;;4.70;2.70;;;;;;100914.26;;;;106740;1285;28706;-30
2022/05/16 01:24:10;;;;;;;4.90;2.70;;;;;;100914.04;;;;106416;1289;28683;-30
2022/05/16 01:26:38;;;;;;;5.10;2.70;;;;;;100914.36;;;;106555;1288;28801;-29
2022/05/16 01:29:06;;;;;;;5.80;2.90;;;;;;100915.48;;;;106747;1285;28656;-29
2022/05/16 01:31:33;;;;;;;5.00;2.70;;;;;;100916.77;;;;106787;1285;28766;-29
2022/05/16 01:34:01;;;;;;;6.20;3.00;;;;;;100916.37;;;;106784;1286;29276;-29
2022/05/16 01:36:28;;;;;;;5.30;2.80;;;;;;100921.13;;;;106619;1287;29702;-29
2022/05/16 01:38:54;;;;;;;5.50;2.80;;;;;;100922.70;;;;106589;1287;28726;-29
2022/05/16 01:41:25;;;;;;;5.60;3.10;;;;;;100920.69;;;;106508;1287;27381;-29
2022/05/16 01:43:57;;;;;;;4.60;2.80;;;;;;100921.98;;;;106776;1287;28747;-28
2022/05/16 01:46:28;;;;;;;5.10;2.30;;;;;;100924.95;;;;106757;1285;30090;-30
2022/05/16 01:48:55;;;;;;;5.30;2.90;;;;;;100925.75;;;;106521;1288;28687;-30
2022/05/16 01:51:22;;;;;;;5.00;2.90;;;;;;100925.13;;;;106776;1286;30935;-30
2022/05/16 01:53:50;;;;;;;5.70;3.10;;;;;;100922.78;;;;106591;1287;30901;-30
2022/05/16 01:56:17;;;;;;;5.40;2.90;;;;;;100920.14;;;;106803;1285;27216;-30
2022/05/16 01:58:44;;;;;;;4.30;2.60;;;;;;100921.40;;;;106815;1285;27130;-29
2022/05/16 02:01:14;;;;;;;5.10;2.80;;;;;;100921.67;;;;106841;1286;28785;-29
2022/05/16 02:03:45;;;;;;;5.00;3.00;;;;;;100923.65;;;;106774;1287;28804;-30
2022/05/16 02:06:12;;;;;;;5.40;2.80;;;;;;100927.08;;;;106730;1285;27999;-30
2022/05/16 02:08:40;;;;;;;4.80;2.80;;;;;;100930.73;;;;106783;1288;28595;-30
2022/05/16 02:11:07;;;;;;;4.60;2.70;;;;;;100932.33;;;;106774;1286;28792;-30
2022/05/16 02:13:38;;;;;;;5.60;3.00;;;;;;100935.09;;;;106626;1286;26585;-30
2022/05/16 02:16:06;;;;;;;5.00;2.80;;;;;;100937.57;;;;106612;1288;31009;-29
2022/05/16 02:18:34;;;;;;;5.20;3.00;;;;;;100940.59;;;;106801;1286;27856;-28
2022/05/16 02:26:33;;;;;;;5.30;3.10;;;;;;100942.67;;;;106787;1285;26432;-28
2022/05/16 02:28:59;;;;;;;4.40;2.70;;;;;;100942.20;;;;106753;1285;27975;-28
2022/05/16 02:31:26;;;;;;;5.70;3.30;;;;;;100944.66;;;;106579;1288;26336;-29
2022/05/16 02:33:53;;;;;;;5.20;3.00;;;;;;100949.00;;;;106738;1287;28691;-30
2022/05/16 02:36:19;;;;;;;5.50;3.00;;;;;;100946.75;;;;106773;1285;28754;-27
2022/05/16 02:38:46;;;;;;;5.20;2.90;;;;;;100947.80;;;;106766;1286;28809;-29
2022/05/16 02:41:13;;;;;;;4.80;2.90;;;;;;100950.46;;;;106302;1288;319458;-29
2022/05/16 02:43:39;;;;;;;5.20;3.00;;;;;;100952.39;;;;106749;1287;28767;-29
2022/05/16 02:46:06;;;;;;;5.70;3.10;;;;;;100951.50;;;;106796;1286;28670;-29
2022/05/16 02:48:33;;;;;;;4.20;2.60;;;;;;100954.16;;;;106601;1287;28324;-28
2022/05/16 02:50:59;;;;;;;5.30;3.00;;;;;;100954.16;;;;106521;1287;28720;-28
2022/05/16 02:53:26;;;;;;;5.20;2.90;;;;;;100955.57;;;;106747;1287;28529;-28
2022/05/16 02:55:53;;;;;;;4.60;3.10;;;;;;100954.11;;;;106771;1287;28606;-30
2022/05/16 02:58:19;;;;;;;5.50;3.20;;;;;;100955.36;;;;106780;1285;29006;-30
2022/05/16 03:00:47;;;;;;;5.00;2.80;;;;;;100955.52;;;;106412;1288;29436;-30
2022/05/16 03:03:13;;;;;;;5.70;2.80;;;;;;100957.77;;;;106777;1285;27509;-30
2022/05/16 03:05:40;;;;;;;5.00;2.60;;;;;;100956.80;;;;106770;1287;29939;-29
2022/05/16 03:08:07;;;;;;;5.00;3.00;;;;;;100958.77;;;;106585;1287;28624;-29
2022/05/16 03:10:34;;;;;;;5.50;2.80;;;;;;100956.20;;;;106801;1286;27948;-29
2022/05/16 03:13:01;;;;;;;5.30;2.80;;;;;;100958.14;;;;106770;1285;29551;-29
2022/05/16 03:15:30;;;;;;;5.70;3.20;;;;;;100954.45;;;;106776;1286;28713;-28
2022/05/16 03:17:58;;;;;;;4.90;2.80;;;;;;100950.70;;;;106626;1287;27514;-30
2022/05/16 03:20:25;;;;;;;4.90;2.80;;;;;;100952.52;;;;106762;1285;27496;-30
2022/05/16 03:22:51;;;;;;;4.90;2.80;;;;;;100954.03;;;;106775;1286;26271;-30
2022/05/16 03:25:18;;;;;;;5.80;3.10;;;;;;100957.30;;;;106770;1285;29905;-30
2022/05/16 03:27:46;;;;;;;4.70;2.90;;;;;;100959.58;;;;106789;1285;28883;-30
2022/05/16 03:30:14;;;;;;;5.20;2.90;;;;;;100962.00;;;;106446;1287;28605;-30
2022/05/16 03:32:41;;;;;;;5.00;2.90;;;;;;100960.11;;;;106815;1288;28648;-29
2022/05/16 03:35:09;;;;;;;5.00;2.80;;;;;;100960.17;;;;106772;1285;26127;-29
2022/05/16 03:37:35;;;;;;;5.40;2.80;;;;;;100963.70;;;;106794;1285;29427;-30
2022/05/16 03:42:50;;;;;;;5.70;2.90;;;;;;100961.54;;;;106638;1285;26931;-29
2022/05/16 03:45:17;;;;;;;4.30;2.50;;;;;;100960.23;;;;106803;1285;28635;-29
2022/05/16 03:47:44;;;;;;;5.20;3.10;;;;;;100963.80;;;;106789;1286;30920;-29
2022/05/16 03:50:11;;;;;;;5.00;3.10;;;;;;100963.35;;;;106780;1285;28053;-29
2022/05/16 03:52:39;;;;;;;4.80;3.10;;;;;;100960.65;;;;106543;1285;28563;-29
2022/05/16 03:55:14;;;;;;;5.00;2.70;;;;;;100961.20;;;;106808;1285;29073;-30
2022/05/16 03:57:41;;;;;;;5.20;3.00;;;;;;100965.11;;;;106766;1285;28661;-30
2022/05/16 04:00:13;;;;;;;5.30;3.10;;;;;;100966.81;;;;106613;1287;30633;-28
2022/05/16 04:02:41;;;;;;;5.10;3.10;;;;;;100967.41;;;;106568;1286;28773;-29
2022/05/16 04:05:09;;;;;;;5.10;2.80;;;;;;100970.67;;;;106608;1288;26754;-29
2022/05/16 04:07:36;;;;;;;5.40;3.00;;;;;;100973.63;;;;106769;1285;26081;-29
2022/05/16 04:10:04;;;;;;;5.80;2.60;;;;;;100973.97;;;;106601;1287;29142;-29
2022/05/16 04:12:31;;;;;;;5.50;3.00;;;;;;100976.27;;;;106815;1286;28718;-28
2022/05/16 04:14:57;;;;;;;5.50;3.00;;;;;;100979.66;;;;106774;1285;28784;-29
2022/05/16 04:17:24;;;;;;;5.40;2.60;;;;;;100982.59;;;;106771;1285;28655;-29
2022/05/16 04:19:51;;;;;;;4.90;2.90;;;;;;100982.89;;;;106747;1285;30999;-29
2022/05/16 04:22:18;;;;;;;4.50;2.90;;;;;;100982.40;;;;106760;1285;31032;-29
2022/05/16 04:24:44;;;;;;;4.80;2.70;;;;;;100985.23;;;;106517;1286;28290;-29
2022/05/16 04:27:11;;;;;;;4.90;2.80;;;;;;100987.58;;;;106764;1285;27845;-29
2022/05/16 04:29:37;;;;;;;4.70;2.90;;;;;;100987.49;;;;106793;1285;26643;-30
2022/05/16 04:32:05;;;;;;;5.40;3.00;;;;;;100987.28;;;;106782;1285;27970;-30
2022/05/16 04:34:32;;;;;;;6.20;3.10;;;;;;100987.90;;;;106779;1286;28884;-30
2022/05/16 04:36:59;;;;;;;5.40;2.80;;;;;;100989.45;;;;106808;1285;27993;-29
2022/05/16 04:39:25;;;;;;;4.40;2.60;;;;;;100989.98;;;;106779;1285;29683;-29
2022/05/16 04:44:38;;;;;;;4.80;3.00;;;;;;100991.00;;;;106787;1285;27459;-29
2022/05/16 04:47:08;;;;;;;4.70;2.60;;;;;;100991.92;;;;106798;1285;26036;-29
2022/05/16 04:49:36;;;;;;;5.00;2.60;;;;;;100994.08;;;;106821;1286;26947;-29
2022/05/16 04:52:03;;;;;;;5.10;2.50;;;;;;100996.02;;;;106836;1285;26910;-29
2022/05/16 04:54:30;;;;;;;5.00;2.80;;;;;;100994.02;;;;106785;1286;31001;-29
2022/05/16 04:56:56;;;;;;;4.90;2.80;;;;;;100993.41;;;;106804;1285;28626;-29
2022/05/16 04:59:23;;;;;;;4.20;2.40;;;;;;100991.98;;;;106772;1285;28694;-29
2022/05/16 05:01:50;;;;;;;5.20;2.70;;;;;;100989.95;;;;106796;1285;28720;-29
2022/05/16 05:04:17;;;;;;;4.70;2.40;;;;;;100992.54;;;;106871;1285;28161;-29
2022/05/16 05:06:44;;;;;;;6.80;2.90;;;;;;100987.09;;;;106845;1285;28635;-29
2022/05/16 05:09:10;;;;;;;4.70;2.00;;;;;;100988.06;;;;106615;1286;28081;-29
2022/05/16 05:14:32;;;;;;;4.70;2.60;;;;;;100992.52;;;;106496;1287;31031;-29
2022/05/16 05:17:08;;;;;;;6.80;2.50;;;;;;100994.66;;;;106589;1287;27594;-29
2022/05/16 05:19:39;;;;;;;5.20;2.40;;;;;;100998.67;;;;106813;1285;28931;-29
2022/05/16 05:22:07;;;;;;;4.40;2.30;;;;;;100997.32;;;;106835;1286;28720;-29
2022/05/16 05:24:33;;;;;;;5.70;2.30;;;;;;101000.33;;;;106462;1286;30885;-29
2022/05/16 05:27:00;;;;;;;6.20;2.50;;;;;;100997.68;;;;106774;1285;26501;-29
2022/05/16 05:29:27;;;;;;;6.30;2.60;;;;;;101001.28;;;;106735;1285;27183;-29
2022/05/16 05:31:53;;;;;;;5.20;2.30;;;;;;100999.35;;;;106766;1285;31463;-29
2022/05/16 05:34:20;;;;;;;5.30;2.60;;;;;;101000.92;;;;106753;1287;26545;-30
2022/05/16 05:36:47;;;;;;;6.60;2.40;;;;;;100998.32;;;;106517;1288;29148;-30
2022/05/16 05:39:16;;;;;;;5.90;2.50;;;;;;100994.19;;;;106635;1287;26453;-28
2022/05/16 05:41:43;;;;;;;5.90;2.60;;;;;;100992.27;;;;106780;1285;28294;-29
2022/05/16 05:44:11;;;;;;;6.30;2.50;;;;;;100987.55;;;;106768;1285;26286;-30
2022/05/16 05:46:40;;;;;;;7.60;2.70;;;;;;100988.20;;;;106758;1287;26057;-29
2022/05/16 05:49:09;;;;;;;6.40;2.70;;;;;;100987.06;;;;106729;1285;29168;-29
2022/05/16 05:51:36;;;;;;;5.10;2.40;;;;;;100991.46;;;;106748;1286;28949;-29
2022/05/16 05:54:04;;;;;;;5.80;2.20;;;;;;100994.95;;;;106770;1287;29801;-29
2022/05/16 05:56:31;;;;;;;4.90;2.70;;;;;;100997.13;;;;106700;1287;30043;-29
2022/05/16 05:58:58;;;;;;;6.90;2.80;;;;;;100998.79;;;;106716;1287;28766;-30
2022/05/16 06:01:25;;;;;;;9.50;2.40;;;;;;100997.58;;;;106742;1287;29464;-30
2022/05/16 06:03:53;;;;;;;7.00;2.60;;;;;;100996.58;;;;106737;1287;29556;-30
2022/05/16 06:06:19;;;;;;;5.50;2.60;;;;;;100995.05;;;;106727;1287;28731;-29
2022/05/16 06:08:46;;;;;;;5.50;2.10;;;;;;100993.41;;;;106731;1287;29093;-29
2022/05/16 06:11:13;;;;;;;5.90;2.30;;;;;;100995.15;;;;106711;1289;31033;-29
2022/05/16 06:13:40;;;;;;;5.30;2.40;;;;;;100994.94;;;;106744;1287;26167;-29
2022/05/16 06:16:08;;;;;;;6.00;2.20;;;;;;100994.61;;;;106746;1287;28756;-29
2022/05/16 06:18:35;;;;;;;7.50;2.30;;;;;;100991.71;;;;106602;1287;27180;-29
2022/05/16 06:21:03;;;;;;;5.40;2.20;;;;;;100992.25;;;;106401;1287;31030;-30
2022/05/16 06:23:30;;;;;;;5.70;2.00;;;;;;100992.24;;;;106615;1288;31040;-27
2022/05/16 06:25:57;;;;;;;5.60;2.10;;;;;;100992.13;;;;106598;1287;27327;-27
2022/05/16 06:28:27;;;;;;;6.70;2.50;;;;;;100993.11;;;;106594;1288;28196;-28
2022/05/16 06:30:56;;;;;;;5.20;2.10;;;;;;100991.98;;;;106598;1287;29918;-29
2022/05/16 06:33:28;;;;;;;6.00;2.10;;;;;;100992.61;;;;106646;1287;27270;-30
2022/05/16 06:35:57;;;;;;;5.70;2.10;;;;;;100991.11;;;;106602;1287;26752;-29
2022/05/16 06:38:29;;;;;;;4.70;1.90;;;;;;100991.09;;;;106652;1287;27961;-30
2022/05/16 06:40:57;;;;;;;4.50;1.90;;;;;;100994.67;;;;106620;1287;28625;-30
2022/05/16 06:43:26;;;;;;;4.80;2.20;;;;;;100997.64;;;;106628;1287;28442;-29
2022/05/16 06:45:53;;;;;;;4.50;1.90;;;;;;100996.70;;;;106446;1287;28771;-29
2022/05/16 06:48:21;;;;;;;5.10;2.50;;;;;;100993.79;;;;106552;1287;28818;-29
2022/05/16 06:50:49;;;;;;;5.30;2.20;;;;;;100996.90;;;;106429;1290;28539;-29
2022/05/16 06:53:23;;;;;;;5.20;2.50;;;;;;100996.30;;;;106617;1287;27936;-29
2022/05/16 06:55:50;;;;;;;5.70;1.90;;;;;;100996.23;;;;106481;1287;28619;-29
2022/05/16 06:58:17;;;;;;;6.10;2.10;;;;;;100997.30;;;;106612;1287;28790;-29
2022/05/16 07:00:44;;;;;;;5.50;1.90;;;;;;101002.71;;;;106612;1287;29414;-28
2022/05/16 07:03:11;;;;;;;6.50;2.20;;;;;;101002.36;;;;106595;1288;26173;-29
2022/05/16 07:05:38;;;;;;;5.30;2.00;;;;;;101001.48;;;;106649;1287;26050;-28
2022/05/16 07:08:06;;;;;;;5.80;2.10;;;;;;101004.34;;;;106654;1287;28811;-28
2022/05/16 07:10:33;;;;;;;5.50;2.10;;;;;;101006.34;;;;106627;1287;26487;-29
2022/05/16 07:13:00;;;;;;;6.10;1.90;;;;;;100999.98;;;;106644;1287;28744;-29
2022/05/16 07:15:27;;;;;;;6.10;2.20;;;;;;101005.17;;;;106457;1287;28732;-30
2022/05/16 07:17:53;;;;;;;11.00;2.40;;;;;;101003.64;;;;106487;1287;28108;-30
2022/05/16 07:20:20;;;;;;;8.50;2.20;;;;;;101010.58;;;;106452;1289;28285;-30
2022/05/16 07:22:50;;;;;;;9.20;2.00;;;;;;101005.30;;;;106488;1288;30925;-29
2022/05/16 07:25:22;;;;;;;6.20;2.10;;;;;;101006.52;;;;106406;1290;30839;-29
2022/05/16 07:27:59;;;;;;;7.20;1.90;;;;;;101007.35;;;;106647;1287;26069;-30
2022/05/16 07:30:33;;;;;;;6.60;2.00;;;;;;101009.63;;;;106631;1287;31125;-30
2022/05/16 07:33:01;;;;;;;5.50;1.80;;;;;;101012.68;;;;106646;1287;28847;-30
2022/05/16 07:35:33;;;;;;;5.90;1.60;;;;;;101010.27;;;;106579;1287;28754;-30
2022/05/16 07:38:00;;;;;;;7.70;1.70;;;;;;101011.40;;;;106516;1287;30964;-30
2022/05/16 07:40:33;;;;;;;6.90;1.70;;;;;;101008.21;;;;106569;1287;28721;-31
2022/05/16 07:43:00;;;;;;;5.30;2.10;;;;;;101008.06;;;;106654;1287;26080;-31
2022/05/16 07:45:27;;;;;;;4.50;1.60;;;;;;101012.14;;;;106497;1287;29807;-33
2022/05/16 07:47:54;;;;;;;9.40;1.80;;;;;;101008.23;;;;106452;1287;30959;-31
2022/05/16 07:50:23;;;;;;;3.80;1.30;;;;;;100992.29;;;;106407;1290;27846;-31
2022/05/16 07:52:49;;;;;;;3.40;1.20;;;;;;100986.40;;;;106489;1287;26053;-31
2022/05/16 07:55:22;;;;;;;3.40;1.20;;;;;;100990.52;;;;106389;1290;26283;-31
2022/05/16 07:57:49;;;;;;;4.30;1.20;;;;;;100986.67;;;;106468;1287;30021;-32
2022/05/16 08:00:18;;;;;;;5.40;1.40;;;;;;100989.15;;;;106442;1287;27941;-32
2022/05/16 08:02:45;;;;;;;6.00;1.50;;;;;;100987.73;;;;106489;1287;28734;-31
2022/05/16 08:05:15;;;;;;;5.00;1.20;;;;;;100996.45;;;;106547;1287;26172;-31
2022/05/16 08:10:29;;;;;;;4.10;1.10;;;;;;101007.79;;;;106585;1287;28885;-30
2022/05/16 08:12:58;;;;;;;5.20;1.50;;;;;;101004.36;;;;106433;1287;28997;-30
2022/05/16 08:15:25;;;;;;;4.40;1.20;;;;;;101004.52;;;;106657;1287;28239;-30
2022/05/16 08:17:53;;;;;;;4.40;1.10;;;;;;100999.61;;;;106464;1287;28638;-30
2022/05/16 08:20:20;;;;;;;3.70;1.20;;;;;;101000.84;;;;106693;1287;26710;-31
2022/05/16 08:22:47;;;;;;;4.90;1.30;;;;;;101005.38;;;;106435;1287;28154;-31
2022/05/16 08:25:17;;;;;;;3.90;1.20;;;;;;101003.84;;;;106583;1287;28769;-30
2022/05/16 08:27:44;;;;;;;3.10;1.00;;;;;;101002.84;;;;106654;1287;39793;-30
2022/05/16 08:30:12;;;;;;;4.70;1.30;;;;;;101003.63;;;;106709;1287;28731;-29
2022/05/16 08:32:39;;;;;;;3.30;1.60;;;;;;101007.17;;;;106762;1285;28691;-29
2022/05/16 08:35:08;;;;;;;4.50;1.10;;;;;;101001.73;;;;106471;1288;39724;-29
2022/05/16 08:40:23;;;;;;;3.40;1.10;;;;;;100996.83;;;;106765;1287;27161;-28
2022/05/16 08:42:54;;;;;;;2.60;1.00;;;;;;100999.93;;;;106691;1286;26102;-28
2022/05/16 08:45:22;;;;;;;3.70;1.20;;;;;;101000.17;;;;106834;1287;28071;-29
2022/05/16 08:48:04;;;;;;;3.70;1.00;;;;;;100999.98;;;;106717;1287;30980;-30
2022/05/16 08:50:39;;;;;;;2.80;0.90;;;;;;100998.44;;;;106958;1286;28015;-30
2022/05/16 08:53:36;;;;;;;3.70;0.80;;;;;;101002.35;;;;106916;1285;28503;-30
2022/05/16 08:56:07;;;;;;;3.20;1.00;;;;;;100997.09;;;;106880;1286;28735;-31
2022/05/16 08:58:44;;;;;;;3.60;0.80;;;;;;100994.81;;;;106961;1285;26135;-30
2022/05/16 09:01:19;;;;;;;2.60;0.80;;;;;;100992.94;;;;106756;1285;27283;-30
2022/05/16 09:04:12;;;;;;;5.00;1.10;;;;;;100989.26;;;;106849;1285;28785;-31
2022/05/16 09:07:16;;;;;;;3.50;0.90;;;;;;100993.44;;;;106609;1287;30696;-30
2022/05/16 09:10:02;;;;;;;3.50;0.90;;;;;;100992.73;;;;106603;1285;28638;-30
2022/05/16 09:12:55;;;;;;;2.40;0.80;;;;;;100992.13;;;;106869;1286;26928;-30
2022/05/16 09:16:05;;;;;;;4.70;1.00;;;;;;100990.29;;;;106872;1285;28581;-31
2022/05/16 09:18:59;;;;;;;4.00;0.80;;;;;;100986.08;;;;106574;1287;30983;-31
2022/05/16 09:21:34;;;;;;;3.00;0.70;;;;;;100986.05;;;;106889;1285;26105;-31
2022/05/16 09:24:07;;;;;;;3.60;0.90;;;;;;100983.50;;;;106420;1288;26154;-30
2022/05/16 09:26:50;;;;;;;2.80;0.60;;;;;;100985.23;;;;106639;1285;30750;-31
2022/05/16 09:29:32;;;;;;;4.30;0.90;;;;;;100988.31;;;;106713;1287;29966;-31
2022/05/16 09:32:10;;;;;;;2.00;0.70;;;;;;100985.96;;;;106829;1285;28764;-31
2022/05/16 09:34:36;;;;;;;2.70;0.70;;;;;;100984.33;;;;106830;1285;28679;-30
2022/05/16 09:37:04;;;;;;;3.60;0.80;;;;;;100989.60;;;;106645;1286;28581;-30
2022/05/16 09:39:35;;;;;;;2.40;0.70;;;;;;100989.54;;;;106774;1285;28637;-30
2022/05/16 09:42:09;;;;;;;1.30;0.60;;;;;;100993.98;;;;106850;1286;29452;-31
2022/05/16 09:44:53;;;;;;;1.80;0.80;;;;;;100987.21;;;;106701;1285;26546;-28
2022/05/16 09:47:42;;;;;;;2.70;0.70;;;;;;100984.13;;;;106819;1286;28605;-30
2022/05/16 09:50:24;;;;;;;2.50;0.80;;;;;;100986.11;;;;106436;1288;29425;-30
2022/05/16 09:53:14;;;;;;;2.90;0.90;;;;;;100990.98;;;;106687;1285;31089;-29
2022/05/16 09:55:58;;;;;;;1.70;0.60;;;;;;100990.55;;;;106708;1285;28657;-30
2022/05/16 09:58:28;;;;;;;1.70;0.70;;;;;;100993.31;;;;106775;1286;30860;-31
2022/05/16 10:00:59;;;;;;;2.00;0.80;;;;;;100991.34;;;;106641;1287;27329;-30
2022/05/16 10:03:41;;;;;;;2.20;0.60;;;;;;100988.58;;;;106824;1286;26261;-30
2022/05/16 10:06:29;;;;;;;19.40;9.00;;;;;;100987.96;;;;106714;1286;28547;-31
2022/05/16 10:09:05;;;;;;;14.50;6.60;;;;;;100985.70;;;;106738;1286;29809;-31
2022/05/16 10:11:33;;;;;;;18.40;8.10;;;;;;100985.58;;;;106365;1288;27803;-31
2022/05/16 10:13:59;;;;;;;12.80;5.70;;;;;;100986.80;;;;106662;1286;28702;-31
2022/05/16 10:16:29;;;;;;;17.60;8.30;;;;;;100984.13;;;;106792;1285;28555;-31
2022/05/16 10:19:02;;;;;;;23.10;10.40;;;;;;100984.65;;;;106503;1287;26425;-30
2022/05/16 10:21:39;;;;;;;;;;;;;;100988.16;;;;106583;1287;28317;-30
2022/05/16 10:24:11;;;;;;;27.00;11.70;;;;;;100989.95;;;;106493;1286;26144;-30
2022/05/16 10:26:43;;;;;;;18.60;8.00;;;;;;100992.04;;;;106545;1287;30477;-30
2022/05/16 10:29:46;;;;;;;21.70;10.00;;;;;;100993.89;;;;106826;1286;28716;-31
2022/05/16 10:35:13;;;;;;;23.50;11.30;;;;;;100979.41;;;;106806;1285;30011;-30
2022/05/16 10:37:44;;;;;;;19.10;9.20;;;;;;100979.10;;;;106713;1285;28776;-30
2022/05/16 10:40:27;;;;;;;18.10;8.60;;;;;;100979.31;;;;106699;1286;27323;-30
2022/05/16 10:43:47;;;;;;;15.60;7.70;;;;;;100983.81;;;;106456;1285;318939;-29
2022/05/16 10:46:27;;;;;;;15.10;7.60;;;;;;100980.48;;;;106007;1294;26128;-28
2022/05/16 10:49:01;;;;;;;14.00;6.30;;;;;;100984.45;;;;106660;1285;28866;-30
2022/05/16 10:51:49;;;;;;;14.50;7.20;;;;;;100979.89;;;;106486;1286;28843;-29
2022/05/16 10:54:23;;;;;;;15.20;6.70;;;;;;100975.59;;;;106730;1285;28605;-30
2022/05/16 10:57:21;;;;;;;15.40;6.60;;;;;;100970.55;;;;106593;1286;29624;-29
2022/05/16 11:00:06;;;;;;;11.80;6.10;;;;;;100968.35;;;;106612;1287;28670;-30
2022/05/16 11:03:08;;;;;;;13.20;6.00;;;;;;100965.48;;;;106736;1286;28672;-30
2022/05/16 11:06:07;;;;;;;10.70;5.10;;;;;;100957.33;;;;106614;1285;26536;-30
2022/05/16 11:08:49;;;;;;;13.00;5.50;;;;;;100952.98;;;;106795;1285;28690;-30
2022/05/16 11:11:51;;;;;;;9.60;4.00;;;;;;100948.27;;;;106615;1286;28065;-29
2022/05/16 11:14:36;;;;;;;10.90;4.30;;;;;;100939.73;;;;106663;1285;28002;-29
2022/05/16 11:17:30;;;;;;;7.60;3.60;;;;;;100933.95;;;;106673;1285;28261;-29
2022/05/16 11:20:23;;;;;;;8.70;3.90;;;;;;100926.80;;;;106603;1285;26261;-29
2022/05/16 11:23:05;;;;;;;8.50;3.60;;;;;;100928.50;;;;106538;1287;28732;-30
2022/05/16 11:25:56;;;;;;;7.60;3.70;;;;;;100934.48;;;;106601;1285;29386;-30
2022/05/16 11:28:37;;;;;;;8.90;3.00;;;;;;100932.95;;;;106712;1285;28012;-30
2022/05/16 11:31:09;;;;;;;9.00;3.30;;;;;;100931.52;;;;106651;1285;28675;-29
2022/05/16 11:33:45;;;;;;;6.50;3.00;;;;;;100927.04;;;;106613;1288;31023;-29
2022/05/16 11:36:31;;;;;;;6.30;2.70;;;;;;100927.35;;;;106478;1287;29218;-29
2022/05/16 11:39:16;;;;;;;6.30;2.80;;;;;;100920.89;;;;106626;1285;30867;-30
2022/05/16 11:42:07;;;;;;;7.00;2.70;;;;;;100915.58;;;;106469;1287;26103;-30
2022/05/16 11:44:57;;;;;;;6.80;2.50;;;;;;100911.14;;;;106432;1285;28822;-30
2022/05/16 11:47:32;;;;;;;6.80;2.30;;;;;;100907.30;;;;106662;1285;30497;-30
2022/05/16 11:50:20;;;;;;;5.70;2.40;;;;;;100899.89;;;;106649;1285;26325;-30
2022/05/16 11:53:05;;;;;;;6.40;2.20;;;;;;100897.29;;;;106666;1284;28106;-31
2022/05/16 12:01:29;;;;;;;6.10;2.10;;;;;;100900.65;;;;106652;1285;28811;-29
2022/05/16 12:04:13;;;;;;;;;;;;;;100899.00;;;;106608;1285;26375;-30
2022/05/16 12:06:55;;;;;;;4.60;1.80;;;;;;100897.00;;;;106641;1285;27001;-30
2022/05/16 12:09:31;;;;;;;5.50;1.80;;;;;;100895.91;;;;106343;1288;28685;-30
2022/05/16 12:12:10;;;;;;;5.20;1.70;;;;;;100893.79;;;;106495;1285;28635;-29
2022/05/16 12:14:40;;;;;;;6.60;2.70;;;;;;100892.23;;;;106506;1288;28868;-29
2022/05/16 12:17:23;;;;;;;9.10;4.90;;;;;;100889.62;;;;106475;1285;28340;-29
2022/05/16 12:19:52;;;;;;;10.00;4.50;;;;;;100886.98;;;;106605;1285;28664;-30
2022/05/16 12:22:45;;;;;;;17.20;9.00;;;;;;100885.19;;;;106415;1286;26195;-30
2022/05/16 12:25:34;;;;;;;16.50;7.60;;;;;;100885.03;;;;106651;1285;28876;-29
2022/05/16 12:28:10;;;;;;;19.40;10.50;;;;;;100882.21;;;;106639;1285;28706;-28
2022/05/16 12:30:37;;;;;;;21.80;10.00;;;;;;100872.92;;;;106646;1285;29504;-28
2022/05/16 12:33:41;;;;;;;28.70;14.80;;;;;;100866.24;;;;106628;1285;30849;-29
2022/05/16 12:36:14;;;;;;;20.80;9.50;;;;;;100867.77;;;;106605;1285;28118;-28
2022/05/16 12:38:42;;;;;;;18.10;9.10;;;;;;100866.41;;;;106639;1285;31077;-29
2022/05/16 12:41:44;;;;;;;17.20;9.30;;;;;;100865.98;;;;106620;1285;26198;-29
2022/05/16 12:44:47;;;;;;;15.00;8.70;;;;;;100862.52;;;;106624;1285;28711;-29
2022/05/16 12:47:31;;;;;;;22.20;11.30;;;;;;100867.95;;;;106167;1288;29120;-28
2022/05/16 12:50:31;;;;;;;25.30;12.90;;;;;;100865.48;;;;106599;1285;26025;-30
2022/05/16 12:53:50;;;;;;;31.10;16.20;;;;;;100863.41;;;;106537;1286;29315;-28
2022/05/16 12:56:42;;;;;;;34.50;16.30;;;;;;100861.17;;;;106569;1285;27380;-29
2022/05/16 13:00:03;;;;;;;34.20;15.90;;;;;;100859.41;;;;106644;1285;28666;-29
2022/05/16 13:03:00;;;;;;;33.00;16.20;;;;;;100862.84;;;;106524;1285;28601;-29
2022/05/16 13:05:45;;;;;;;32.00;17.40;;;;;;100863.09;;;;106592;1286;29094;-30
2022/05/16 13:08:47;;;;;;;35.20;18.80;;;;;;100863.27;;;;106484;1287;28088;-29
2022/05/16 13:11:52;;;;;;;32.30;17.70;;;;;;100867.36;;;;106218;1286;44124;-29
2022/05/16 13:14:36;;;;;;;31.90;16.00;;;;;;100866.26;;;;106545;1285;39720;-29
2022/05/16 13:17:08;;;;;;;27.10;13.80;;;;;;100867.52;;;;106684;1285;28839;-30
2022/05/16 13:19:44;;;;;;;27.90;14.90;;;;;;100863.98;;;;106672;1286;28866;-30
2022/05/16 13:22:19;;;;;;;20.60;9.60;;;;;;100859.45;;;;106748;1285;28715;-29
2022/05/16 13:24:46;;;;;;;16.70;9.00;;;;;;100858.34;;;;106691;1286;28777;-29
2022/05/16 13:30:14;;;;;;;19.10;8.50;;;;;;100856.61;;;;106654;1285;28771;-30
2022/05/16 13:32:40;;;;;;;16.00;7.60;;;;;;100853.35;;;;106486;1287;27145;-30
2022/05/16 13:35:15;;;;;;;13.00;7.00;;;;;;100858.27;;;;106449;1287;28454;-30
2022/05/16 13:37:49;;;;;;;18.30;9.80;;;;;;100857.70;;;;106905;1288;28670;-30
2022/05/16 13:40:35;;;;;;;13.00;6.40;;;;;;100859.29;;;;106423;1285;30917;-30
2022/05/16 13:43:15;;;;;;;16.30;6.90;;;;;;100854.93;;;;106383;1287;30851;-29
2022/05/16 13:45:42;;;;;;;14.90;6.90;;;;;;100856.85;;;;106519;1285;28645;-29
2022/05/16 13:48:14;;;;;;;19.70;10.20;;;;;;100855.15;;;;106685;1285;28720;-30
2022/05/16 13:50:43;;;;;;;16.00;8.60;;;;;;100853.96;;;;106688;1285;28091;-29